sensor_id;sensor_type;location;lat;lon;timestamp;P1;durP1;ratioP1;P2;durP2;ratioP2
11496;SDS011;5805;51.542;7.230;2023-11-21T00:00:25;10.88;;;5.80;;
11496;SDS011;5805;51.542;7.230;2023-11-21T00:02:50;8.70;;;4.95;;
11496;SDS011;5805;51.542;7.230;2023-11-21T00:05:16;10.40;;;5.60;;
11496;SDS011;5805;51.542;7.230;2023-11-21T00:07:43;9.05;;;5.32;;
11496;SDS011;5805;51.542;7.230;2023-11-21T00:10:10;8.48;;;5.55;;
11496;SDS011;5805;51.542;7.230;2023-11-21T00:12:37;11.40;;;5.53;;
11496;SDS011;5805;51.542;7.230;2023-11-21T00:15:03;7.82;;;5.65;;
11496;SDS011;5805;51.542;7.230;2023-11-21T00:17:29;11.68;;;6.32;;
11496;SDS011;5805;51.542;7.230;2023-11-21T00:19:55;8.48;;;5.70;;
11496;SDS011;5805;51.542;7.230;2023-11-21T00:22:20;12.40;;;5.45;;
11496;SDS011;5805;51.542;7.230;2023-11-21T00:24:48;6.97;;;5.28;;
11496;SDS011;5805;51.542;7.230;2023-11-21T00:27:13;10.88;;;5.43;;
11496;SDS011;5805;51.542;7.230;2023-11-21T00:29:40;9.90;;;5.82;;
11496;SDS011;5805;51.542;7.230;2023-11-21T00:32:06;15.05;;;6.22;;
11496;SDS011;5805;51.542;7.230;2023-11-21T00:34:32;10.15;;;5.90;;
11496;SDS011;5805;51.542;7.230;2023-11-21T00:36:57;10.00;;;5.95;;
11496;SDS011;5805;51.542;7.230;2023-11-21T00:39:25;11.15;;;6.18;;
11496;SDS011;5805;51.542;7.230;2023-11-21T00:41:52;12.40;;;6.40;;
11496;SDS011;5805;51.542;7.230;2023-11-21T00:44:18;12.55;;;6.38;;
11496;SDS011;5805;51.542;7.230;2023-11-21T00:46:44;11.15;;;5.95;;
11496;SDS011;5805;51.542;7.230;2023-11-21T00:49:09;8.98;;;5.97;;
11496;SDS011;5805;51.542;7.230;2023-11-21T00:51:36;10.55;;;6.40;;
11496;SDS011;5805;51.542;7.230;2023-11-21T00:54:02;10.85;;;6.32;;
11496;SDS011;5805;51.542;7.230;2023-11-21T00:56:29;14.07;;;6.88;;
11496;SDS011;5805;51.542;7.230;2023-11-21T00:58:57;13.13;;;6.43;;
11496;SDS011;5805;51.542;7.230;2023-11-21T01:01:23;11.88;;;6.75;;
11496;SDS011;5805;51.542;7.230;2023-11-21T01:03:48;9.15;;;7.00;;
11496;SDS011;5805;51.542;7.230;2023-11-21T01:06:14;13.68;;;6.05;;
11496;SDS011;5805;51.542;7.230;2023-11-21T01:08:40;12.95;;;6.88;;
11496;SDS011;5805;51.542;7.230;2023-11-21T01:11:06;7.97;;;5.53;;
11496;SDS011;5805;51.542;7.230;2023-11-21T01:13:32;10.43;;;6.90;;
11496;SDS011;5805;51.542;7.230;2023-11-21T01:15:59;10.20;;;6.35;;
11496;SDS011;5805;51.542;7.230;2023-11-21T01:18:25;11.68;;;6.35;;
11496;SDS011;5805;51.542;7.230;2023-11-21T01:20:51;12.50;;;6.68;;
11496;SDS011;5805;51.542;7.230;2023-11-21T01:23:17;14.73;;;6.95;;
11496;SDS011;5805;51.542;7.230;2023-11-21T01:25:44;11.27;;;6.70;;
11496;SDS011;5805;51.542;7.230;2023-11-21T01:28:11;11.90;;;6.63;;
11496;SDS011;5805;51.542;7.230;2023-11-21T01:30:36;10.45;;;6.53;;
11496;SDS011;5805;51.542;7.230;2023-11-21T01:33:04;12.75;;;7.40;;
11496;SDS011;5805;51.542;7.230;2023-11-21T01:35:30;16.05;;;6.78;;
11496;SDS011;5805;51.542;7.230;2023-11-21T01:37:55;10.68;;;6.32;;
11496;SDS011;5805;51.542;7.230;2023-11-21T01:40:21;12.43;;;7.03;;
11496;SDS011;5805;51.542;7.230;2023-11-21T01:42:48;9.90;;;6.05;;
11496;SDS011;5805;51.542;7.230;2023-11-21T01:45:15;12.70;;;7.22;;
11496;SDS011;5805;51.542;7.230;2023-11-21T01:47:41;12.40;;;7.63;;
11496;SDS011;5805;51.542;7.230;2023-11-21T01:50:12;10.55;;;6.20;;
11496;SDS011;5805;51.542;7.230;2023-11-21T01:52:42;12.88;;;7.15;;
11496;SDS011;5805;51.542;7.230;2023-11-21T01:55:08;14.77;;;6.85;;
11496;SDS011;5805;51.542;7.230;2023-11-21T01:57:35;14.38;;;6.65;;
11496;SDS011;5805;51.542;7.230;2023-11-21T02:00:01;9.70;;;5.97;;
11496;SDS011;5805;51.542;7.230;2023-11-21T02:02:29;9.57;;;6.00;;
11496;SDS011;5805;51.542;7.230;2023-11-21T02:04:54;9.60;;;6.65;;
11496;SDS011;5805;51.542;7.230;2023-11-21T02:07:22;11.90;;;6.20;;
11496;SDS011;5805;51.542;7.230;2023-11-21T02:09:47;10.88;;;6.45;;
11496;SDS011;5805;51.542;7.230;2023-11-21T02:12:13;10.25;;;6.20;;
11496;SDS011;5805;51.542;7.230;2023-11-21T02:14:40;13.35;;;7.03;;
11496;SDS011;5805;51.542;7.230;2023-11-21T02:17:06;12.20;;;6.72;;
11496;SDS011;5805;51.542;7.230;2023-11-21T02:19:32;9.95;;;6.10;;
11496;SDS011;5805;51.542;7.230;2023-11-21T02:21:58;11.48;;;6.68;;
11496;SDS011;5805;51.542;7.230;2023-11-21T02:24:27;10.02;;;6.53;;
11496;SDS011;5805;51.542;7.230;2023-11-21T02:26:52;11.38;;;6.60;;
11496;SDS011;5805;51.542;7.230;2023-11-21T02:29:18;12.15;;;7.50;;
11496;SDS011;5805;51.542;7.230;2023-11-21T02:31:45;10.70;;;6.70;;
11496;SDS011;5805;51.542;7.230;2023-11-21T02:34:11;12.85;;;6.97;;
11496;SDS011;5805;51.542;7.230;2023-11-21T02:36:37;14.32;;;7.25;;
11496;SDS011;5805;51.542;7.230;2023-11-21T02:39:03;11.90;;;6.32;;
11496;SDS011;5805;51.542;7.230;2023-11-21T02:41:30;8.32;;;5.95;;
11496;SDS011;5805;51.542;7.230;2023-11-21T02:43:56;11.13;;;7.00;;
11496;SDS011;5805;51.542;7.230;2023-11-21T02:46:21;11.98;;;6.70;;
11496;SDS011;5805;51.542;7.230;2023-11-21T02:48:47;8.63;;;6.00;;
11496;SDS011;5805;51.542;7.230;2023-11-21T02:51:13;14.35;;;6.93;;
11496;SDS011;5805;51.542;7.230;2023-11-21T02:53:39;9.27;;;5.80;;
11496;SDS011;5805;51.542;7.230;2023-11-21T02:56:05;11.80;;;6.30;;
11496;SDS011;5805;51.542;7.230;2023-11-21T02:58:32;11.27;;;6.35;;
11496;SDS011;5805;51.542;7.230;2023-11-21T03:00:58;10.75;;;6.22;;
11496;SDS011;5805;51.542;7.230;2023-11-21T03:03:24;10.70;;;6.38;;
11496;SDS011;5805;51.542;7.230;2023-11-21T03:05:49;10.10;;;6.53;;
11496;SDS011;5805;51.542;7.230;2023-11-21T03:08:15;13.07;;;6.80;;
11496;SDS011;5805;51.542;7.230;2023-11-21T03:10:41;11.80;;;6.75;;
11496;SDS011;5805;51.542;7.230;2023-11-21T03:13:08;13.10;;;7.22;;
11496;SDS011;5805;51.542;7.230;2023-11-21T03:15:35;12.85;;;7.47;;
11496;SDS011;5805;51.542;7.230;2023-11-21T03:18:00;12.93;;;6.90;;
11496;SDS011;5805;51.542;7.230;2023-11-21T03:20:26;11.43;;;6.57;;
11496;SDS011;5805;51.542;7.230;2023-11-21T03:22:51;15.25;;;6.95;;
11496;SDS011;5805;51.542;7.230;2023-11-21T03:25:17;11.27;;;6.95;;
11496;SDS011;5805;51.542;7.230;2023-11-21T03:27:43;9.73;;;6.88;;
11496;SDS011;5805;51.542;7.230;2023-11-21T03:30:09;10.57;;;6.93;;
11496;SDS011;5805;51.542;7.230;2023-11-21T03:32:37;13.15;;;6.97;;
11496;SDS011;5805;51.542;7.230;2023-11-21T03:35:03;11.25;;;5.93;;
11496;SDS011;5805;51.542;7.230;2023-11-21T03:37:29;9.05;;;6.85;;
11496;SDS011;5805;51.542;7.230;2023-11-21T03:39:55;11.10;;;7.38;;
11496;SDS011;5805;51.542;7.230;2023-11-21T03:42:21;9.20;;;6.50;;
11496;SDS011;5805;51.542;7.230;2023-11-21T03:44:47;12.35;;;7.38;;
11496;SDS011;5805;51.542;7.230;2023-11-21T03:47:13;9.52;;;6.60;;
11496;SDS011;5805;51.542;7.230;2023-11-21T03:49:40;10.75;;;6.78;;
11496;SDS011;5805;51.542;7.230;2023-11-21T03:52:06;13.68;;;7.95;;
11496;SDS011;5805;51.542;7.230;2023-11-21T03:54:31;10.85;;;7.00;;
11496;SDS011;5805;51.542;7.230;2023-11-21T03:56:57;11.15;;;7.28;;
11496;SDS011;5805;51.542;7.230;2023-11-21T03:59:24;11.20;;;7.43;;
11496;SDS011;5805;51.542;7.230;2023-11-21T04:01:50;13.48;;;7.68;;
11496;SDS011;5805;51.542;7.230;2023-11-21T04:04:16;13.70;;;7.43;;
11496;SDS011;5805;51.542;7.230;2023-11-21T04:06:43;10.75;;;7.22;;
11496;SDS011;5805;51.542;7.230;2023-11-21T04:09:09;12.90;;;7.53;;
11496;SDS011;5805;51.542;7.230;2023-11-21T04:11:35;11.38;;;7.22;;
11496;SDS011;5805;51.542;7.230;2023-11-21T04:14:01;10.60;;;6.70;;
11496;SDS011;5805;51.542;7.230;2023-11-21T04:16:26;11.05;;;6.97;;
11496;SDS011;5805;51.542;7.230;2023-11-21T04:18:52;10.75;;;6.97;;
11496;SDS011;5805;51.542;7.230;2023-11-21T04:21:18;14.02;;;6.75;;
11496;SDS011;5805;51.542;7.230;2023-11-21T04:23:45;13.13;;;7.70;;
11496;SDS011;5805;51.542;7.230;2023-11-21T04:26:11;11.90;;;6.95;;
11496;SDS011;5805;51.542;7.230;2023-11-21T04:28:36;10.20;;;6.82;;
11496;SDS011;5805;51.542;7.230;2023-11-21T04:31:02;12.27;;;7.35;;
11496;SDS011;5805;51.542;7.230;2023-11-21T04:33:28;8.85;;;6.75;;
11496;SDS011;5805;51.542;7.230;2023-11-21T04:35:54;16.30;;;7.45;;
11496;SDS011;5805;51.542;7.230;2023-11-21T04:38:21;11.15;;;6.85;;
11496;SDS011;5805;51.542;7.230;2023-11-21T04:40:48;10.73;;;6.53;;
11496;SDS011;5805;51.542;7.230;2023-11-21T04:43:14;12.70;;;7.22;;
11496;SDS011;5805;51.542;7.230;2023-11-21T04:45:40;9.82;;;6.43;;
11496;SDS011;5805;51.542;7.230;2023-11-21T04:48:07;10.75;;;6.55;;
11496;SDS011;5805;51.542;7.230;2023-11-21T04:50:33;8.82;;;6.40;;
11496;SDS011;5805;51.542;7.230;2023-11-21T04:52:59;12.98;;;6.70;;
11496;SDS011;5805;51.542;7.230;2023-11-21T04:55:24;11.25;;;6.97;;
11496;SDS011;5805;51.542;7.230;2023-11-21T04:57:52;12.32;;;7.40;;
11496;SDS011;5805;51.542;7.230;2023-11-21T05:00:17;10.77;;;6.55;;
11496;SDS011;5805;51.542;7.230;2023-11-21T05:02:45;9.52;;;6.75;;
11496;SDS011;5805;51.542;7.230;2023-11-21T05:05:12;10.85;;;6.78;;
11496;SDS011;5805;51.542;7.230;2023-11-21T05:07:38;9.55;;;7.05;;
11496;SDS011;5805;51.542;7.230;2023-11-21T05:10:05;13.13;;;7.03;;
11496;SDS011;5805;51.542;7.230;2023-11-21T05:12:31;9.00;;;7.30;;
11496;SDS011;5805;51.542;7.230;2023-11-21T05:14:58;12.68;;;7.32;;
11496;SDS011;5805;51.542;7.230;2023-11-21T05:17:24;8.52;;;6.78;;
11496;SDS011;5805;51.542;7.230;2023-11-21T05:19:50;9.95;;;6.38;;
11496;SDS011;5805;51.542;7.230;2023-11-21T05:22:16;10.55;;;6.88;;
11496;SDS011;5805;51.542;7.230;2023-11-21T05:24:42;12.77;;;7.10;;
11496;SDS011;5805;51.542;7.230;2023-11-21T05:27:08;9.00;;;6.72;;
11496;SDS011;5805;51.542;7.230;2023-11-21T05:29:34;12.50;;;7.22;;
11496;SDS011;5805;51.542;7.230;2023-11-21T05:32:01;12.38;;;6.53;;
11496;SDS011;5805;51.542;7.230;2023-11-21T05:34:26;12.00;;;7.40;;
11496;SDS011;5805;51.542;7.230;2023-11-21T05:36:52;9.90;;;6.65;;
11496;SDS011;5805;51.542;7.230;2023-11-21T05:39:18;13.13;;;7.53;;
11496;SDS011;5805;51.542;7.230;2023-11-21T05:41:44;9.73;;;7.20;;
11496;SDS011;5805;51.542;7.230;2023-11-21T05:44:09;10.07;;;6.43;;
11496;SDS011;5805;51.542;7.230;2023-11-21T05:46:35;10.85;;;7.20;;
11496;SDS011;5805;51.542;7.230;2023-11-21T05:49:03;12.45;;;7.05;;
11496;SDS011;5805;51.542;7.230;2023-11-21T05:51:29;10.32;;;7.00;;
11496;SDS011;5805;51.542;7.230;2023-11-21T05:53:54;11.55;;;7.45;;
11496;SDS011;5805;51.542;7.230;2023-11-21T05:56:20;13.40;;;7.35;;
11496;SDS011;5805;51.542;7.230;2023-11-21T05:58:46;10.65;;;7.45;;
11496;SDS011;5805;51.542;7.230;2023-11-21T06:01:11;14.35;;;8.15;;
11496;SDS011;5805;51.542;7.230;2023-11-21T06:03:37;14.25;;;7.53;;
11496;SDS011;5805;51.542;7.230;2023-11-21T06:06:05;14.85;;;7.80;;
11496;SDS011;5805;51.542;7.230;2023-11-21T06:08:31;11.20;;;7.28;;
11496;SDS011;5805;51.542;7.230;2023-11-21T06:10:57;13.98;;;6.95;;
11496;SDS011;5805;51.542;7.230;2023-11-21T06:13:22;10.57;;;7.38;;
11496;SDS011;5805;51.542;7.230;2023-11-21T06:15:48;12.15;;;7.53;;
11496;SDS011;5805;51.542;7.230;2023-11-21T06:18:14;10.98;;;7.45;;
11496;SDS011;5805;51.542;7.230;2023-11-21T06:20:40;13.95;;;7.72;;
11496;SDS011;5805;51.542;7.230;2023-11-21T06:23:07;10.32;;;7.50;;
11496;SDS011;5805;51.542;7.230;2023-11-21T06:25:33;13.60;;;8.00;;
11496;SDS011;5805;51.542;7.230;2023-11-21T06:27:58;12.90;;;7.70;;
11496;SDS011;5805;51.542;7.230;2023-11-21T06:30:25;11.57;;;7.97;;
11496;SDS011;5805;51.542;7.230;2023-11-21T06:32:53;15.65;;;8.20;;
11496;SDS011;5805;51.542;7.230;2023-11-21T06:35:19;17.50;;;8.38;;
11496;SDS011;5805;51.542;7.230;2023-11-21T06:37:45;11.85;;;7.43;;
11496;SDS011;5805;51.542;7.230;2023-11-21T06:40:12;15.00;;;7.22;;
11496;SDS011;5805;51.542;7.230;2023-11-21T06:42:38;11.65;;;8.02;;
11496;SDS011;5805;51.542;7.230;2023-11-21T06:45:06;17.33;;;8.15;;
11496;SDS011;5805;51.542;7.230;2023-11-21T06:47:32;13.27;;;8.13;;
11496;SDS011;5805;51.542;7.230;2023-11-21T06:49:58;14.75;;;7.90;;
11496;SDS011;5805;51.542;7.230;2023-11-21T06:52:24;11.65;;;8.27;;
11496;SDS011;5805;51.542;7.230;2023-11-21T06:54:50;18.20;;;8.65;;
11496;SDS011;5805;51.542;7.230;2023-11-21T06:57:17;13.63;;;8.07;;
11496;SDS011;5805;51.542;7.230;2023-11-21T06:59:43;15.57;;;8.63;;
11496;SDS011;5805;51.542;7.230;2023-11-21T07:02:09;10.45;;;8.00;;
11496;SDS011;5805;51.542;7.230;2023-11-21T07:04:35;14.20;;;7.93;;
11496;SDS011;5805;51.542;7.230;2023-11-21T07:07:00;13.32;;;8.50;;
11496;SDS011;5805;51.542;7.230;2023-11-21T07:09:28;11.75;;;8.13;;
11496;SDS011;5805;51.542;7.230;2023-11-21T07:11:54;12.82;;;8.35;;
11496;SDS011;5805;51.542;7.230;2023-11-21T07:14:21;13.00;;;8.40;;
11496;SDS011;5805;51.542;7.230;2023-11-21T07:16:47;14.43;;;8.85;;
11496;SDS011;5805;51.542;7.230;2023-11-21T07:19:13;13.93;;;8.68;;
11496;SDS011;5805;51.542;7.230;2023-11-21T07:21:39;13.35;;;9.05;;
11496;SDS011;5805;51.542;7.230;2023-11-21T07:24:06;18.25;;;9.05;;
11496;SDS011;5805;51.542;7.230;2023-11-21T07:26:33;13.05;;;7.70;;
11496;SDS011;5805;51.542;7.230;2023-11-21T07:28:59;15.20;;;8.65;;
11496;SDS011;5805;51.542;7.230;2023-11-21T07:31:26;16.70;;;9.18;;
11496;SDS011;5805;51.542;7.230;2023-11-21T07:33:52;13.45;;;8.63;;
11496;SDS011;5805;51.542;7.230;2023-11-21T07:36:18;13.13;;;8.20;;
11496;SDS011;5805;51.542;7.230;2023-11-21T07:38:44;17.02;;;8.95;;
11496;SDS011;5805;51.542;7.230;2023-11-21T07:41:10;16.95;;;9.35;;
11496;SDS011;5805;51.542;7.230;2023-11-21T07:43:36;18.77;;;9.43;;
11496;SDS011;5805;51.542;7.230;2023-11-21T07:46:02;13.57;;;8.98;;
11496;SDS011;5805;51.542;7.230;2023-11-21T07:48:29;12.73;;;8.48;;
11496;SDS011;5805;51.542;7.230;2023-11-21T07:50:55;16.05;;;8.50;;
11496;SDS011;5805;51.542;7.230;2023-11-21T07:53:21;14.18;;;8.63;;
11496;SDS011;5805;51.542;7.230;2023-11-21T07:55:46;14.57;;;8.82;;
11496;SDS011;5805;51.542;7.230;2023-11-21T07:58:12;17.73;;;9.82;;
11496;SDS011;5805;51.542;7.230;2023-11-21T08:00:38;15.20;;;9.55;;
11496;SDS011;5805;51.542;7.230;2023-11-21T08:03:03;14.05;;;9.43;;
11496;SDS011;5805;51.542;7.230;2023-11-21T08:05:31;14.85;;;9.40;;
11496;SDS011;5805;51.542;7.230;2023-11-21T08:07:56;15.65;;;9.52;;
11496;SDS011;5805;51.542;7.230;2023-11-21T08:10:22;14.13;;;9.10;;
11496;SDS011;5805;51.542;7.230;2023-11-21T08:12:48;17.67;;;9.90;;
11496;SDS011;5805;51.542;7.230;2023-11-21T08:15:14;15.70;;;9.40;;
11496;SDS011;5805;51.542;7.230;2023-11-21T08:17:40;19.42;;;10.43;;
11496;SDS011;5805;51.542;7.230;2023-11-21T08:20:06;14.98;;;9.93;;
11496;SDS011;5805;51.542;7.230;2023-11-21T08:22:34;16.42;;;11.10;;
11496;SDS011;5805;51.542;7.230;2023-11-21T08:24:59;24.23;;;13.65;;
11496;SDS011;5805;51.542;7.230;2023-11-21T08:27:25;26.02;;;14.95;;
11496;SDS011;5805;51.542;7.230;2023-11-21T08:29:51;23.95;;;14.43;;
11496;SDS011;5805;51.542;7.230;2023-11-21T08:32:16;22.95;;;13.13;;
11496;SDS011;5805;51.542;7.230;2023-11-21T08:34:42;22.25;;;13.48;;
11496;SDS011;5805;51.542;7.230;2023-11-21T08:37:08;26.35;;;14.32;;
11496;SDS011;5805;51.542;7.230;2023-11-21T08:39:35;31.85;;;15.45;;
11496;SDS011;5805;51.542;7.230;2023-11-21T08:42:02;26.83;;;13.27;;
11496;SDS011;5805;51.542;7.230;2023-11-21T08:44:29;28.70;;;13.65;;
11496;SDS011;5805;51.542;7.230;2023-11-21T08:46:55;25.08;;;14.13;;
11496;SDS011;5805;51.542;7.230;2023-11-21T08:49:20;24.60;;;11.98;;
11496;SDS011;5805;51.542;7.230;2023-11-21T08:51:46;28.60;;;13.48;;
11496;SDS011;5805;51.542;7.230;2023-11-21T08:54:12;28.55;;;15.82;;
11496;SDS011;5805;51.542;7.230;2023-11-21T08:56:39;28.70;;;15.88;;
11496;SDS011;5805;51.542;7.230;2023-11-21T08:59:05;34.90;;;18.40;;
11496;SDS011;5805;51.542;7.230;2023-11-21T09:01:30;36.22;;;18.42;;
11496;SDS011;5805;51.542;7.230;2023-11-21T09:03:56;36.08;;;18.30;;
11496;SDS011;5805;51.542;7.230;2023-11-21T09:06:22;36.38;;;18.98;;
11496;SDS011;5805;51.542;7.230;2023-11-21T09:08:48;29.45;;;18.55;;
11496;SDS011;5805;51.542;7.230;2023-11-21T09:11:13;39.25;;;19.70;;
11496;SDS011;5805;51.542;7.230;2023-11-21T09:13:41;34.35;;;18.80;;
11496;SDS011;5805;51.542;7.230;2023-11-21T09:16:06;40.90;;;21.70;;
11496;SDS011;5805;51.542;7.230;2023-11-21T09:18:32;36.40;;;18.55;;
11496;SDS011;5805;51.542;7.230;2023-11-21T09:20:58;38.72;;;20.40;;
11496;SDS011;5805;51.542;7.230;2023-11-21T09:23:24;35.00;;;20.67;;
11496;SDS011;5805;51.542;7.230;2023-11-21T09:25:49;38.97;;;21.17;;
11496;SDS011;5805;51.542;7.230;2023-11-21T09:28:15;42.28;;;22.50;;
11496;SDS011;5805;51.542;7.230;2023-11-21T09:30:42;43.50;;;21.88;;
11496;SDS011;5805;51.542;7.230;2023-11-21T09:33:08;45.10;;;22.48;;
11496;SDS011;5805;51.542;7.230;2023-11-21T09:35:34;40.30;;;22.27;;
11496;SDS011;5805;51.542;7.230;2023-11-21T09:38:00;39.08;;;21.85;;
11496;SDS011;5805;51.542;7.230;2023-11-21T09:40:25;40.28;;;22.05;;
11496;SDS011;5805;51.542;7.230;2023-11-21T09:42:53;41.55;;;22.48;;
11496;SDS011;5805;51.542;7.230;2023-11-21T09:45:21;40.97;;;22.10;;
11496;SDS011;5805;51.542;7.230;2023-11-21T09:47:51;42.47;;;23.02;;
11496;SDS011;5805;51.542;7.230;2023-11-21T09:50:18;38.10;;;20.08;;
11496;SDS011;5805;51.542;7.230;2023-11-21T09:52:48;34.13;;;19.98;;
11496;SDS011;5805;51.542;7.230;2023-11-21T09:55:20;41.97;;;20.63;;
11496;SDS011;5805;51.542;7.230;2023-11-21T09:57:47;34.33;;;20.27;;
11496;SDS011;5805;51.542;7.230;2023-11-21T10:00:13;37.55;;;20.02;;
11496;SDS011;5805;51.542;7.230;2023-11-21T10:02:39;38.70;;;20.70;;
11496;SDS011;5805;51.542;7.230;2023-11-21T10:05:07;39.97;;;20.67;;
11496;SDS011;5805;51.542;7.230;2023-11-21T10:07:33;34.55;;;19.73;;
11496;SDS011;5805;51.542;7.230;2023-11-21T10:09:59;38.17;;;20.52;;
11496;SDS011;5805;51.542;7.230;2023-11-21T10:12:26;37.15;;;19.48;;
11496;SDS011;5805;51.542;7.230;2023-11-21T10:14:53;32.22;;;19.90;;
11496;SDS011;5805;51.542;7.230;2023-11-21T10:17:21;37.75;;;19.25;;
11496;SDS011;5805;51.542;7.230;2023-11-21T10:19:49;31.90;;;20.15;;
11496;SDS011;5805;51.542;7.230;2023-11-21T10:22:16;36.97;;;21.17;;
11496;SDS011;5805;51.542;7.230;2023-11-21T10:24:42;37.55;;;23.48;;
11496;SDS011;5805;51.542;7.230;2023-11-21T10:27:08;41.85;;;25.38;;
11496;SDS011;5805;51.542;7.230;2023-11-21T10:29:34;43.35;;;25.58;;
11496;SDS011;5805;51.542;7.230;2023-11-21T10:31:59;46.40;;;25.75;;
11496;SDS011;5805;51.542;7.230;2023-11-21T10:34:26;46.28;;;26.65;;
11496;SDS011;5805;51.542;7.230;2023-11-21T10:36:52;40.25;;;24.95;;
11496;SDS011;5805;51.542;7.230;2023-11-21T10:39:19;45.80;;;26.30;;
11496;SDS011;5805;51.542;7.230;2023-11-21T10:41:45;40.53;;;24.30;;
11496;SDS011;5805;51.542;7.230;2023-11-21T10:44:13;39.45;;;23.63;;
11496;SDS011;5805;51.542;7.230;2023-11-21T10:46:39;40.25;;;24.92;;
11496;SDS011;5805;51.542;7.230;2023-11-21T10:49:05;41.83;;;23.98;;
11496;SDS011;5805;51.542;7.230;2023-11-21T10:51:30;39.75;;;23.40;;
11496;SDS011;5805;51.542;7.230;2023-11-21T10:53:56;43.95;;;23.98;;
11496;SDS011;5805;51.542;7.230;2023-11-21T10:56:24;35.80;;;20.77;;
11496;SDS011;5805;51.542;7.230;2023-11-21T10:58:52;33.70;;;19.23;;
11496;SDS011;5805;51.542;7.230;2023-11-21T11:01:18;31.20;;;17.58;;
11496;SDS011;5805;51.542;7.230;2023-11-21T11:03:44;29.88;;;17.60;;
11496;SDS011;5805;51.542;7.230;2023-11-21T11:06:09;23.25;;;15.70;;
11496;SDS011;5805;51.542;7.230;2023-11-21T11:08:37;24.55;;;15.18;;
11496;SDS011;5805;51.542;7.230;2023-11-21T11:11:04;30.67;;;15.63;;
11496;SDS011;5805;51.542;7.230;2023-11-21T11:13:31;25.10;;;16.15;;
11496;SDS011;5805;51.542;7.230;2023-11-21T11:15:57;31.17;;;16.20;;
11496;SDS011;5805;51.542;7.230;2023-11-21T11:18:24;29.27;;;15.40;;
11496;SDS011;5805;51.542;7.230;2023-11-21T11:20:49;22.10;;;13.40;;
11496;SDS011;5805;51.542;7.230;2023-11-21T11:23:25;16.90;;;12.38;;
11496;SDS011;5805;51.542;7.230;2023-11-21T11:26:08;19.25;;;12.18;;
11496;SDS011;5805;51.542;7.230;2023-11-21T11:28:47;17.58;;;11.68;;
11496;SDS011;5805;51.542;7.230;2023-11-21T11:31:21;20.30;;;11.27;;
11496;SDS011;5805;51.542;7.230;2023-11-21T11:33:57;18.30;;;11.60;;
11496;SDS011;5805;51.542;7.230;2023-11-21T11:36:31;20.88;;;12.52;;
11496;SDS011;5805;51.542;7.230;2023-11-21T11:39:02;16.88;;;11.80;;
11496;SDS011;5805;51.542;7.230;2023-11-21T11:41:30;20.00;;;12.05;;
11496;SDS011;5805;51.542;7.230;2023-11-21T11:43:57;17.27;;;12.88;;
11496;SDS011;5805;51.542;7.230;2023-11-21T11:49:05;19.58;;;12.75;;
11496;SDS011;5805;51.542;7.230;2023-11-21T11:51:30;20.33;;;13.27;;
11496;SDS011;5805;51.542;7.230;2023-11-21T11:53:56;23.48;;;13.68;;
11496;SDS011;5805;51.542;7.230;2023-11-21T11:56:23;21.92;;;13.00;;
11496;SDS011;5805;51.542;7.230;2023-11-21T11:58:53;17.67;;;11.77;;
11496;SDS011;5805;51.542;7.230;2023-11-21T12:01:21;21.40;;;12.68;;
11496;SDS011;5805;51.542;7.230;2023-11-21T12:06:50;14.60;;;9.93;;
11496;SDS011;5805;51.542;7.230;2023-11-21T12:09:17;13.32;;;9.57;;
11496;SDS011;5805;51.542;7.230;2023-11-21T12:11:43;12.07;;;8.35;;
11496;SDS011;5805;51.542;7.230;2023-11-21T12:14:10;12.32;;;8.88;;
11496;SDS011;5805;51.542;7.230;2023-11-21T12:16:37;12.25;;;8.68;;
11496;SDS011;5805;51.542;7.230;2023-11-21T12:19:03;13.30;;;8.40;;
11496;SDS011;5805;51.542;7.230;2023-11-21T12:21:29;10.65;;;7.75;;
11496;SDS011;5805;51.542;7.230;2023-11-21T12:23:55;8.60;;;6.57;;
11496;SDS011;5805;51.542;7.230;2023-11-21T12:26:22;8.95;;;6.93;;
11496;SDS011;5805;51.542;7.230;2023-11-21T12:28:51;9.65;;;7.35;;
11496;SDS011;5805;51.542;7.230;2023-11-21T12:31:17;8.80;;;6.80;;
11496;SDS011;5805;51.542;7.230;2023-11-21T12:33:44;9.88;;;7.53;;
11496;SDS011;5805;51.542;7.230;2023-11-21T12:36:10;10.07;;;7.15;;
11496;SDS011;5805;51.542;7.230;2023-11-21T12:38:36;8.75;;;7.43;;
11496;SDS011;5805;51.542;7.230;2023-11-21T12:41:02;8.20;;;6.97;;
11496;SDS011;5805;51.542;7.230;2023-11-21T12:43:28;9.40;;;7.05;;
11496;SDS011;5805;51.542;7.230;2023-11-21T12:46:04;13.07;;;7.85;;
11496;SDS011;5805;51.542;7.230;2023-11-21T12:48:31;9.70;;;7.53;;
11496;SDS011;5805;51.542;7.230;2023-11-21T12:50:58;10.75;;;7.25;;
11496;SDS011;5805;51.542;7.230;2023-11-21T12:53:24;9.30;;;7.50;;
11496;SDS011;5805;51.542;7.230;2023-11-21T12:55:50;10.40;;;7.78;;
11496;SDS011;5805;51.542;7.230;2023-11-21T12:58:16;11.88;;;8.52;;
11496;SDS011;5805;51.542;7.230;2023-11-21T13:00:43;9.63;;;8.10;;
11496;SDS011;5805;51.542;7.230;2023-11-21T13:03:10;11.77;;;8.65;;
11496;SDS011;5805;51.542;7.230;2023-11-21T13:05:38;12.07;;;8.52;;
11496;SDS011;5805;51.542;7.230;2023-11-21T13:08:07;12.45;;;9.18;;
11496;SDS011;5805;51.542;7.230;2023-11-21T13:10:33;10.70;;;8.40;;
11496;SDS011;5805;51.542;7.230;2023-11-21T13:13:00;12.73;;;8.93;;
11496;SDS011;5805;51.542;7.230;2023-11-21T13:15:26;15.30;;;9.95;;
11496;SDS011;5805;51.542;7.230;2023-11-21T13:17:53;11.95;;;8.68;;
11496;SDS011;5805;51.542;7.230;2023-11-21T13:20:19;14.57;;;10.13;;
11496;SDS011;5805;51.542;7.230;2023-11-21T13:22:46;14.25;;;9.43;;
11496;SDS011;5805;51.542;7.230;2023-11-21T13:25:14;13.85;;;10.27;;
11496;SDS011;5805;51.542;7.230;2023-11-21T13:27:40;12.90;;;9.32;;
11496;SDS011;5805;51.542;7.230;2023-11-21T13:30:06;12.43;;;8.73;;
11496;SDS011;5805;51.542;7.230;2023-11-21T13:32:32;13.00;;;9.52;;
11496;SDS011;5805;51.542;7.230;2023-11-21T13:34:58;14.02;;;9.00;;
11496;SDS011;5805;51.542;7.230;2023-11-21T13:37:24;13.38;;;9.15;;
11496;SDS011;5805;51.542;7.230;2023-11-21T13:39:49;12.77;;;9.18;;
11496;SDS011;5805;51.542;7.230;2023-11-21T13:42:17;12.07;;;8.30;;
11496;SDS011;5805;51.542;7.230;2023-11-21T13:44:42;12.43;;;8.23;;
11496;SDS011;5805;51.542;7.230;2023-11-21T13:47:08;11.50;;;8.48;;
11496;SDS011;5805;51.542;7.230;2023-11-21T13:49:34;9.48;;;7.95;;
11496;SDS011;5805;51.542;7.230;2023-11-21T13:51:59;12.38;;;8.57;;
11496;SDS011;5805;51.542;7.230;2023-11-21T13:54:25;11.20;;;7.75;;
11496;SDS011;5805;51.542;7.230;2023-11-21T13:56:51;11.45;;;7.88;;
11496;SDS011;5805;51.542;7.230;2023-11-21T13:59:18;11.57;;;8.00;;
11496;SDS011;5805;51.542;7.230;2023-11-21T14:01:44;11.45;;;7.75;;
11496;SDS011;5805;51.542;7.230;2023-11-21T14:04:09;9.82;;;6.75;;
11496;SDS011;5805;51.542;7.230;2023-11-21T14:06:35;8.88;;;6.78;;
11496;SDS011;5805;51.542;7.230;2023-11-21T14:09:01;10.45;;;6.05;;
11496;SDS011;5805;51.542;7.230;2023-11-21T14:11:26;9.98;;;5.80;;
11496;SDS011;5805;51.542;7.230;2023-11-21T14:13:52;8.38;;;6.22;;
11496;SDS011;5805;51.542;7.230;2023-11-21T14:16:19;8.07;;;6.03;;
11496;SDS011;5805;51.542;7.230;2023-11-21T14:18:45;8.85;;;5.97;;
11496;SDS011;5805;51.542;7.230;2023-11-21T14:21:11;7.57;;;5.82;;
11496;SDS011;5805;51.542;7.230;2023-11-21T14:23:36;7.97;;;5.30;;
11496;SDS011;5805;51.542;7.230;2023-11-21T14:26:02;6.53;;;5.40;;
11496;SDS011;5805;51.542;7.230;2023-11-21T14:28:28;7.68;;;5.10;;
11496;SDS011;5805;51.542;7.230;2023-11-21T14:30:53;6.75;;;5.63;;
11496;SDS011;5805;51.542;7.230;2023-11-21T14:33:20;6.22;;;4.65;;
11496;SDS011;5805;51.542;7.230;2023-11-21T14:35:46;8.07;;;4.70;;
11496;SDS011;5805;51.542;7.230;2023-11-21T14:38:12;5.97;;;4.22;;
11496;SDS011;5805;51.542;7.230;2023-11-21T14:40:37;8.45;;;5.18;;
11496;SDS011;5805;51.542;7.230;2023-11-21T14:43:03;7.18;;;4.75;;
11496;SDS011;5805;51.542;7.230;2023-11-21T14:45:29;5.72;;;4.18;;